^^
Datos históricos de la estación: Murcia-Puente Tocinos
Diario Informe para Octubre 18, 2021 Unidades:  Ingés    Métrico   Ambas
Diario Semanal Mensual Anual
  Máxima: Mínima: Promedio:
Temperatura: 76.6 °F 62.8 °F 68.4 °F
Punto de rocio: 62.8 °F 58.5 °F 61 °F
Humedad: 89% 57% 78%
Velocidad viento: 7.6mph 0mph 3.5mph
Racha viento: 13.8mph - -
Viento- - SE
Presión: 30.3 in 30.1 in -
Precipitación: 0 in    
 
 
Tabla de datos para Octubre 18, 2021
Hora Temperatura Punto de rocio Presión Viento Velocidad viento Racha viento Humedad Intensidad lluvia(por hora) Nubes
00:04 65.8 °F 61.5 °F 30.1 in NNE 4 mph 7.4 mph 86% 0 in
00:09 65.8 °F 61.9 °F 30.1 in NNE 4.2 mph 6.9 mph 86.8% 0 in
00:14 65.7 °F 61.7 °F 30.1 in NNE 4.7 mph 7.4 mph 87% 0 in
00:19 65.7 °F 61.7 °F 30.1 in NE 4.4 mph 7.4 mph 87% 0 in
00:24 65.7 °F 61.7 °F 30.1 in NE 4 mph 8.1 mph 87% 0 in
00:29 65.5 °F 61.5 °F 30.1 in NNE 4.3 mph 6.9 mph 87% 0 in
00:34 65.3 °F 61.5 °F 30.1 in NNE 4.7 mph 5.8 mph 87.5% 0 in
00:39 65.1 °F 61.5 °F 30.1 in NNE 4.2 mph 5.2 mph 88% 0 in
00:44 64.9 °F 61.3 °F 30.1 in North 3.6 mph 4.7 mph 88% 0 in
00:49 64.8 °F 61.2 °F 30.1 in NNE 3.3 mph 4.6 mph 88% 0 in
00:54 64.8 °F 61.2 °F 30.1 in NNE 2.9 mph 3.6 mph 88% 0 in
00:59 64.8 °F 61.2 °F 30.1 in NNE 2.4 mph 3.5 mph 88% 0 in
01:04 64.6 °F 61 °F 30.1 in NNE 1.8 mph 3.6 mph 88% 0 in
01:09 64.6 °F 61 °F 30.1 in NNE 1.9 mph 2.3 mph 88.3% 0 in
01:14 64.6 °F 61.3 °F 30.1 in NNE 2 mph 2.4 mph 89% 0 in
01:19 64.6 °F 61.3 °F 30.1 in NNE 1.2 mph 4 mph 89% 0 in
01:24 64.6 °F 61.2 °F 30.1 in Calm   5.9 mph 89% 0 in
01:29 64.6 °F 61.3 °F 30.1 in NE 1.2 mph 4.6 mph 89% 0 in
01:34 64.6 °F 61.3 °F 30.1 in NE 2.9 mph 4.6 mph 89% 0 in
01:39 64.6 °F 61.3 °F 30.1 in NE 2.7 mph 4.6 mph 89% 0 in
01:44 64.6 °F 61.3 °F 30.1 in NNE 2.4 mph 4.6 mph 89% 0 in
01:49 64.6 °F 61.3 °F 30.1 in NNE 2.6 mph 4.6 mph 89% 0 in
01:54 64.6 °F 61.3 °F 30.1 in NNE 2.9 mph 4.7 mph 89% 0 in
01:59 64.6 °F 61.3 °F 30.1 in NNE 3 mph 5.2 mph 89% 0 in
02:04 64.6 °F 61.3 °F 30.1 in NNE 3.1 mph 5.2 mph 89% 0 in
02:09 64.6 °F 61.3 °F 30.1 in NE 3.3 mph 4.6 mph 89% 0 in
02:14 64.6 °F 61.3 °F 30.1 in NE 3.6 mph 4.6 mph 89% 0 in
02:19 64.6 °F 61.3 °F 30.1 in NE 3.3 mph 4.6 mph 89% 0 in
02:24 64.6 °F 61.3 °F 30.1 in Este 2.9 mph 4.6 mph 89% 0 in
02:29 64.2 °F 60.8 °F 30.1 in Este 2.9 mph 4.7 mph 88.5% 0 in
02:34 64 °F 60.4 °F 30.1 in ESE 2.9 mph 4.6 mph 88% 0 in
02:39 64 °F 60.6 °F 30.1 in ESE 2.7 mph 3.5 mph 88.8% 0 in
02:44 64 °F 60.6 °F 30.1 in ESE 2.4 mph   88.7% 0 in
02:49 64 °F 60.4 °F 30.1 in ESE 1.4 mph   88% 0 in
02:54 64 °F 60.6 °F 30.1 in Calm     88.8% 0 in
02:59 64 °F 60.6 °F 30.1 in Calm   2.4 mph 88.5% 0 in
03:04 64 °F 60.4 °F 30.1 in Calm   2.3 mph 88% 0 in
03:09 64 °F 60.4 °F 30.1 in Calm   2.3 mph 88% 0 in
03:14 64 °F 60.4 °F 30.1 in Calm   2.4 mph 88% 0 in
03:19 64 °F 60.4 °F 30.1 in ESE 0.6 mph 2.3 mph 88% 0 in
03:24 64 °F 60.4 °F 30.1 in ESE 1.4 mph 2.9 mph 88% 0 in
03:29 64 °F 60.4 °F 30.1 in ESE 1.4 mph 2.4 mph 88% 0 in
03:34 64 °F 60.4 °F 30.1 in ESE 1.4 mph   88% 0 in
03:39 64 °F 60.4 °F 30.1 in ESE 0.8 mph   88.3% 0 in
03:44 64 °F 60.6 °F 30.1 in Calm   2.4 mph 89% 0 in
03:49 64 °F 60.6 °F 30.1 in Calm   2.4 mph 89% 0 in
03:54 64 °F 60.4 °F 30.1 in Calm   3.5 mph 88.3% 0 in
03:59 64 °F 60.4 °F 30.1 in SE 0.6 mph 3.1 mph 88% 0 in
04:04 64 °F 60.4 °F 30.1 in SE 1.4 mph 3.5 mph 88% 0 in
04:09 64 °F 60.4 °F 30.1 in SE 1.6 mph 3.6 mph 88% 0 in
04:14 64 °F 60.4 °F 30.1 in SSE 1.8 mph 4.6 mph 88% 0 in
04:19 63.9 °F 60.3 °F 30.1 in SSE 2.2 mph 4.7 mph 87.7% 0 in
04:24 63.9 °F 59.9 °F 30.1 in SSE 2.9 mph 5.8 mph 87% 0 in
04:29 63.7 °F 59.7 °F 30.1 in Sur 3.2 mph 5.4 mph 87% 0 in
04:34 63.7 °F 59.7 °F 30.1 in SSE 3.6 mph 5.8 mph 87% 0 in
04:39 63.5 °F 59.2 °F 30.1 in SSE 3.6 mph 5.8 mph 86% 0 in
04:44 63.5 °F 59.2 °F 30.1 in SSO 3.6 mph 5.2 mph 86% 0 in
04:49 63.7 °F 59.4 °F 30.1 in SO 3.3 mph 4.6 mph 86% 0 in
04:54 63.7 °F 59.4 °F 30.1 in OSO 2.9 mph 4.7 mph 86% 0 in
04:59 63.7 °F 59.4 °F 30.1 in Oeste 3 mph 5.4 mph 86% 0 in
05:04 63.7 °F 59.4 °F 30.1 in OSO 3.1 mph 5.9 mph 86% 0 in
05:09 63.5 °F 59.4 °F 30.1 in OSO 3.3 mph 5.2 mph 86.5% 0 in
05:14 63.3 °F 59.4 °F 30.1 in OSO 3.6 mph 4.6 mph 87% 0 in
05:19 63.3 °F 59.4 °F 30.1 in SSO 3.1 mph 4.6 mph 87% 0 in
05:24 63.3 °F 59.5 °F 30.1 in Sur 2.4 mph 3.6 mph 87% 0 in
05:29 63.5 °F 59.5 °F 30.1 in SE 2.6 mph 6.4 mph 87% 0 in
05:34 63.3 °F 59.4 °F 30.1 in SE 2.9 mph 6.9 mph 86.4% 0 in
05:39 63.3 °F 59.2 °F 30.1 in SE 3.5 mph 5.8 mph 86% 0 in
05:44 63.1 °F 58.8 °F 30.1 in SSE 4.3 mph 4.7 mph 86% 0 in
05:49 63 °F 58.8 °F 30.1 in SSE 4 mph 6.9 mph 86% 0 in
05:54 63 °F 58.6 °F 30.1 in SSE 3.6 mph 5.9 mph 86% 0 in
05:59 62.8 °F 58.5 °F 30.1 in Sur 3.8 mph 5.2 mph 86% 0 in
06:04 62.8 °F 58.8 °F 30.1 in Sur 4 mph 4.7 mph 87% 0 in
06:09 62.8 °F 58.8 °F 30.1 in SSO 3.5 mph 4.7 mph 87% 0 in
06:14 62.8 °F 58.8 °F 30.1 in SSO 2.9 mph 4.7 mph 87% 0 in
06:19 63 °F 59 °F 30.1 in SSO 2.7 mph 3.6 mph 87% 0 in
06:24 63 °F 59 °F 30.1 in SO 2.4 mph 4.6 mph 87% 0 in
06:29 63 °F 59 °F 30.1 in OSO 2.4 mph 4.6 mph 87% 0 in
06:34 63 °F 59 °F 30.1 in OSO 2.4 mph 3.6 mph 87% 0 in
06:39 63 °F 59 °F 30.1 in SO 2.2 mph 5.2 mph 87% 0 in
06:44 63 °F 59 °F 30.1 in SO 2 mph 5.9 mph 87% 0 in
06:49 63 °F 59 °F 30.1 in SSO 2.7 mph 7.4 mph 87% 0 in
06:54 63 °F 59.2 °F 30.1 in SSO 3.6 mph 6.9 mph 87.4% 0 in
06:59 63 °F 59.4 °F 30.1 in SO 3.9 mph 4.6 mph 88% 0 in
07:04 63.1 °F 59.5 °F 30.1 in SSO 4.3 mph 5.2 mph 88% 0 in
07:09 63.1 °F 59.5 °F 30.1 in Sur 3.8 mph 4.7 mph 88% 0 in
07:14 63 °F 59.4 °F 30.1 in SSO 3.1 mph 5.2 mph 88% 0 in
07:19 63 °F 59.4 °F 30.1 in SO 3.3 mph 6.2 mph 88% 0 in
07:24 63 °F 59.2 °F 30.1 in SO 3.6 mph 6.4 mph 87.7% 0 in
07:29 63 °F 59 °F 30.1 in SO 3.8 mph 6.9 mph 87.2% 0 in
07:34 63 °F 59.4 °F 30.1 in SO 4 mph 5.9 mph 88% 0 in
07:39 63 °F 59.4 °F 30.1 in OSO 4 mph 6.9 mph 88% 0 in
07:44 63 °F 59.4 °F 30.1 in OSO 4 mph 7.4 mph 88% 0 in
07:49 63 °F 59.2 °F 30.1 in SO 4.1 mph 8.1 mph 88% 0 in
07:54 62.8 °F 59.2 °F 30.2 in SSO 4.3 mph 6.2 mph 88% 0 in
07:59 62.8 °F 59.2 °F 30.2 in SO 4.2 mph 5.9 mph 88% 0 in
08:04 63 °F 59.2 °F 30.2 in SSO 4 mph 5.2 mph 88% 0 in
08:09 63 °F 59.4 °F 30.2 in Sur 3.6 mph 6.9 mph 88% 0 in
08:14 63 °F 59.4 °F 30.2 in SSO 3.1 mph 5.9 mph 88% 0 in
08:19 63.1 °F 59.4 °F 30.2 in SSO 3.3 mph 5.8 mph 88% 0 in
08:24 63.1 °F 59.4 °F 30.2 in Sur 3.6 mph 4.7 mph 87.5% 0 in
08:29 63.1 °F 59.4 °F 30.2 in Sur 3.4 mph 5.8 mph 87% 0 in
08:34 63.3 °F 59.4 °F 30.2 in SSE 3.1 mph 5.2 mph 87% 0 in
08:39 63.5 °F 59.5 °F 30.2 in SSE 3 mph 4.6 mph 87% 0 in
08:44 63.5 °F 59.7 °F 30.2 in SE 2.9 mph 5.9 mph 87% 0 in
08:49 63.7 °F 59.5 °F 30.2 in SSE 3.2 mph 6.2 mph 86.5% 0 in
08:54 63.7 °F 59.5 °F 30.2 in SSE 3.6 mph 6.2 mph 86.4% 0 in
08:59 63.7 °F 59.5 °F 30.2 in Sur 3.8 mph 5.9 mph 86% 0 in
09:04 63.9 °F 59.7 °F 30.2 in SSO 4 mph 6.9 mph 86.5% 0 in
09:09 64 °F 60.1 °F 30.2 in SSO 4 mph 5.8 mph 87% 0 in
09:14 64.2 °F 60.3 °F 30.2 in SO 4 mph 4.6 mph 87% 0 in
09:19 64.4 °F 60.4 °F 30.2 in SO 3.5 mph 4.6 mph 87% 0 in
09:24 64.6 °F 60.6 °F 30.2 in OSO 2.9 mph 5.9 mph 87% 0 in
09:29 64.8 °F 60.6 °F 30.2 in OSO 3 mph 5.9 mph 86.7% 0 in
09:34 64.6 °F 60.3 °F 30.2 in Oeste 3.1 mph 5.9 mph 86% 0 in
09:39 64.6 °F 60.3 °F 30.2 in Oeste 3.5 mph 5.9 mph 86% 0 in
09:44 64.8 °F 60.4 °F 30.2 in Oeste 4 mph 5.8 mph 86% 0 in
09:49 64.8 °F 60.4 °F 30.2 in Oeste 3.7 mph 4.7 mph 86% 0 in
09:54 64.9 °F 60.6 °F 30.2 in ONO 3.1 mph 4.6 mph 86% 0 in
09:59 65.1 °F 60.6 °F 30.2 in ONO 3 mph 4.7 mph 85.6% 0 in
10:04 65.5 °F 60.8 °F 30.2 in Oeste 2.9 mph 5.2 mph 85% 0 in
10:09 65.7 °F 61 °F 30.2 in Oeste 3 mph 5.9 mph 85% 0 in
10:14 65.7 °F 61 °F 30.2 in Oeste 3.1 mph 6.2 mph 85% 0 in
10:19 65.8 °F 61 °F 30.2 in OSO 3.3 mph 6.2 mph 84.3% 0 in
10:24 66 °F 61 °F 30.2 in SO 3.6 mph 5.9 mph 84% 0 in
10:29 66 °F 61 °F 30.2 in OSO 3.3 mph 4.6 mph 84% 0 in
10:34 66.2 °F 61.2 °F 30.2 in Oeste 2.9 mph 4.6 mph 83.9% 0 in
10:39 66.4 °F 61.3 °F 30.2 in ONO 2.5 mph 2.4 mph 83.8% 0 in
10:44 66.7 °F 61.3 °F 30.2 in ONO 2 mph 2.9 mph 83.2% 0 in
10:49 66.9 °F 61.5 °F 30.2 in Sur 1.9 mph 5.2 mph 82.7% 0 in
10:54 67.3 °F 61.5 °F 30.2 in SE 1.8 mph 4.6 mph 82% 0 in
10:59 67.8 °F 62.2 °F 30.2 in Sur 1.9 mph 5.2 mph 82.1% 0 in
11:04 68.2 °F 61.9 °F 30.2 in SSO 2 mph 5.9 mph 80.1% 0 in
11:09 68.4 °F 61.7 °F 30.2 in SO 2.4 mph 5.2 mph 79.6% 0 in
11:14 68.5 °F 61.9 °F 30.2 in ONO 2.9 mph 5.8 mph 79.2% 0 in
11:19 68.5 °F 61.5 °F 30.2 in OSO 2.7 mph 6.2 mph 78% 0 in
11:24 68.5 °F 61.5 °F 30.2 in SO 2.4 mph 5.8 mph 78.4% 0 in
11:29 68.5 °F 61.7 °F 30.2 in ONO 2.6 mph 6.2 mph 79% 0 in
11:34 68.5 °F 61.7 °F 30.2 in Oeste 2.9 mph 5.9 mph 78.8% 0 in
11:39 68.7 °F 61.7 °F 30.2 in ONO 3 mph 5.2 mph 78.7% 0 in
11:44 68.7 °F 61.7 °F 30.2 in Oeste 3.1 mph 5.9 mph 78% 0 in
11:49 69.1 °F 61.7 °F 30.2 in ONO 3.1 mph 5.2 mph 77.6% 0 in
11:54 69.3 °F 61.7 °F 30.2 in NO 3.1 mph 7.4 mph 77% 0 in
11:59 69.4 °F 61.7 °F 30.2 in ONO 3.1 mph 5.9 mph 76.2% 0 in
12:04 69.8 °F 61.9 °F 30.2 in OSO 3.1 mph 4.7 mph 76.1% 0 in
12:09 70.2 °F 61.9 °F 30.2 in SO 2.8 mph 4.6 mph 75.1% 0 in
12:14 70.5 °F 62.2 °F 30.2 in ONO 2.4 mph 3.5 mph 74.9% 0 in
12:19 71.1 °F 62.2 °F 30.2 in ONO 2 mph 3.5 mph 73.9% 0 in
12:24 71.4 °F 62.1 °F 30.2 in Oeste 1.4 mph 3.6 mph 72.6% 0 in
12:29 71.4 °F 61.9 °F 30.2 in OSO 1.6 mph 4.6 mph 72% 0 in
12:34 71.8 °F 62.2 °F 30.2 in OSO 2 mph 4.6 mph 72% 0 in
12:39 72 °F 62.2 °F 30.2 in Oeste 1.9 mph 3.5 mph 71.5% 0 in
12:44 72.1 °F 62.2 °F 30.2 in ONO 1.8 mph 3.6 mph 71% 0 in
12:49 72.3 °F 62.1 °F 30.2 in NO 1.9 mph 5.9 mph 70.1% 0 in
12:54 72.3 °F 62.1 °F 30.2 in NO 2 mph 5.8 mph 70% 0 in
12:59 72.1 °F 61.7 °F 30.2 in NO 2.5 mph 5.2 mph 70.1% 0 in
13:04 72.1 °F 62.1 °F 30.2 in NNO 3.1 mph 2.9 mph 71% 0 in
13:09 72.5 °F 62.4 °F 30.2 in NNO 2.6 mph 5.2 mph 70.8% 0 in
13:14 73 °F 62.2 °F 30.2 in NE 1.8 mph 6.2 mph 69.2% 0 in
13:19 73 °F 62.1 °F 30.2 in NO 2.2 mph 5.2 mph 68.1% 0 in
13:24 73 °F 62.1 °F 30.2 in NNO 2.9 mph 4.7 mph 68.4% 0 in
13:29 73.2 °F 62.2 °F 30.2 in ENE 2.9 mph 5.9 mph 68.7% 0 in
13:34 73 °F 62.1 °F 30.2 in NNE 2.9 mph 8.1 mph 68.4% 0 in
13:39 73 °F 62.2 °F 30.2 in NE 3.5 mph 6.9 mph 69% 0 in
13:44 72.9 °F 62.1 °F 30.2 in North 4.3 mph 6.9 mph 69% 0 in
13:49 73 °F 62.2 °F 30.2 in NE 4 mph 6.9 mph 69% 0 in
13:54 73 °F 62.2 °F 30.2 in NE 3.6 mph 5.8 mph 69% 0 in
13:59 73.2 °F 62.4 °F 30.2 in North 3.4 mph 6.9 mph 69% 0 in
14:04 73.4 °F 62.2 °F 30.2 in North 3.1 mph 4.6 mph 68% 0 in
14:09 73.6 °F 62.4 °F 30.2 in NE 3.1 mph 7.4 mph 68% 0 in
14:14 73.8 °F 62.4 °F 30.2 in NE 3.1 mph 9.2 mph 67.7% 0 in
14:19 73.9 °F 62.2 °F 30.2 in NNE 3.6 mph 9.2 mph 67.1% 0 in
14:24 74.3 °F 62.8 °F 30.2 in NE 4.3 mph 9.2 mph 67.5% 0 in
14:29 74.7 °F 62.8 °F 30.2 in NE 4.7 mph 9.2 mph 66.6% 0 in
14:34 74.8 °F 62.8 °F 30.2 in NE 5.2 mph 7.4 mph 65.9% 0 in
14:39 75 °F 62.4 °F 30.2 in NE 4.8 mph 9.7 mph 64.6% 0 in
14:44 75 °F 62.4 °F 30.2 in ENE 4.3 mph 10.7 mph 64.8% 0 in
14:49 75 °F 62.1 °F 30.2 in NE 4.3 mph 10.4 mph 64.1% 0 in
14:54 75.4 °F 62.4 °F 30.2 in NE 4.3 mph 12.7 mph 64.3% 0 in
14:59 75.6 °F 62.2 °F 30.1 in NE 5 mph 10.4 mph 63.7% 0 in
15:04 75.6 °F 62.1 °F 30.1 in NNE 5.9 mph 10.4 mph 63% 0 in
15:09 75.7 °F 62.2 °F 30.1 in NNE 5.7 mph 11.5 mph 63% 0 in
15:14 75.7 °F 62.1 °F 30.1 in NE 5.4 mph 11.5 mph 62.6% 0 in
15:19 75.9 °F 61.7 °F 30.1 in NNE 5.7 mph 11.5 mph 61.4% 0 in
15:24 75.9 °F 61.5 °F 30.1 in NE 6.2 mph 12.7 mph 61% 0 in
15:29 75.7 °F 61.3 °F 30.1 in NE 6.8 mph 12.7 mph 61% 0 in
15:34 76.1 °F 61.7 °F 30.1 in NNE 7.6 mph 12.7 mph 61% 0 in
15:39 76.5 °F 61.9 °F 30.1 in ENE 6.9 mph 13.8 mph 60.8% 0 in
15:44 76.5 °F 61.7 °F 30.1 in NE 5.9 mph 11.5 mph 60.3% 0 in
15:49 76.5 °F 61.7 °F 30.1 in NE 6.3 mph 11.5 mph 60.3% 0 in
15:54 76.5 °F 61.2 °F 30.1 in ENE 6.9 mph 12.7 mph 59.2% 0 in
15:59 76.1 °F 61 °F 30.1 in NE 6.5 mph 10.4 mph 59.3% 0 in
16:04 75.9 °F 60.8 °F 30.1 in NE 5.9 mph 11.5 mph 59.3% 0 in
16:09 75.9 °F 60.6 °F 30.1 in NE 6.1 mph 10 mph 59% 0 in
16:14 75.9 °F 60.6 °F 30.1 in ENE 6.4 mph 10.4 mph 59.1% 0 in
16:19 75.9 °F 60.6 °F 30.1 in NE 6.2 mph 11.8 mph 59% 0 in
16:24 76.1 °F 60.6 °F 30.1 in ENE 5.9 mph 9.7 mph 58.9% 0 in
16:29 76.5 °F 60.4 °F 30.1 in Este 6 mph 12.7 mph 58% 0 in
16:34 76.5 °F 60.3 °F 30.1 in ENE 6.2 mph 11.5 mph 57.4% 0 in
16:39 76.6 °F 60.8 °F 30.1 in ENE 6.2 mph 8.5 mph 58% 0 in
16:44 76.5 °F 60.3 °F 30.1 in ENE 6.2 mph 9.2 mph 57.1% 0 in
16:49 76.3 °F 59.9 °F 30.1 in NE 6.1 mph 12.7 mph 57% 0 in
16:54 75.9 °F 60.1 °F 30.1 in ENE 5.9 mph 10.4 mph 57.9% 0 in
16:59 75.9 °F 60.1 °F 30.1 in NE 5.7 mph 10.7 mph 58% 0 in
17:04 75.7 °F 59.9 °F 30.1 in NE 5.4 mph 10.4 mph 58% 0 in
17:09 75.7 °F 60.1 °F 30.1 in ENE 5.7 mph 10.4 mph 58% 0 in
17:14 75.7 °F 59.9 °F 30.1 in ENE 6.2 mph 12.7 mph 57.9% 0 in
17:19 75.9 °F 59.7 °F 30.1 in NE 6.1 mph 9.7 mph 57.3% 0 in
17:24 75.7 °F 59.9 °F 30.1 in NE 5.9 mph 9.2 mph 57.8% 0 in
17:29 75.9 °F 60.1 °F 30.1 in ENE 5.7 mph 9.7 mph 58% 0 in
17:34 75.9 °F 60.1 °F 30.1 in NE 5.4 mph 10.7 mph 58% 0 in
17:39 75.7 °F 59.9 °F 30.1 in ENE 5.3 mph 10.4 mph 58% 0 in
17:44 75.7 °F 59.9 °F 30.1 in NE 5.2 mph 10 mph 58% 0 in
17:49 75.6 °F 59.9 °F 30.1 in NE 5.7 mph 11.5 mph 58.4% 0 in
17:54 75.4 °F 60.1 °F 30.1 in NE 6.4 mph 11.8 mph 59% 0 in
17:59 75.4 °F 60.1 °F 30.1 in NE 6.2 mph 9.2 mph 59.1% 0 in
18:04 75.4 °F 60.1 °F 30.1 in ENE 5.9 mph 9.2 mph 59% 0 in
18:09 75.4 °F 60.1 °F 30.1 in Este 5.4 mph 10.2 mph 59% 0 in
18:14 75.4 °F 60.3 °F 30.1 in Este 4.7 mph 10.4 mph 59.6% 0 in
18:19 75.4 °F 60.4 °F 30.1 in Este 5.2 mph 9.2 mph 60% 0 in
18:24 75.4 °F 60.6 °F 30.1 in Este 5.9 mph 9.7 mph 60.4% 0 in
18:29 75 °F 60.8 °F 30.1 in Este 5.9 mph 9.2 mph 61% 0 in
18:34 75 °F 61 °F 30.1 in ENE 5.9 mph 10.2 mph 61.7% 0 in
18:39 74.8 °F 60.8 °F 30.2 in ENE 5.4 mph 11.5 mph 61.8% 0 in
18:44 74.7 °F 60.6 °F 30.2 in ENE 4.7 mph 10.7 mph 62% 0 in
18:49 74.5 °F 60.8 °F 30.2 in ENE 5.2 mph 8.5 mph 62.5% 0 in
18:54 74.1 °F 61 °F 30.2 in ENE 5.9 mph 12.7 mph 63.5% 0 in
18:59 73.9 °F 61.3 °F 30.2 in NE 5.6 mph 10.4 mph 64.9% 0 in
19:04 73.6 °F 61.5 °F 30.2 in NE 5.2 mph 10.7 mph 66% 0 in
19:09 73.2 °F 61.5 °F 30.2 in NE 5.7 mph 11.8 mph 66.9% 0 in
19:14 72.9 °F 61.5 °F 30.2 in NE 6.4 mph 10.4 mph 67.7% 0 in
19:19 72.7 °F 61.7 °F 30.2 in NE 6.3 mph 12.7 mph 68.6% 0 in
19:24 72.3 °F 61.9 °F 30.2 in NE 6.2 mph 12.7 mph 69.7% 0 in
19:29 72.1 °F 62.2 °F 30.2 in NE 6.3 mph 9.7 mph 71% 0 in
19:34 72 °F 62.4 °F 30.2 in NE 6.4 mph 8.1 mph 71.9% 0 in
19:39 71.8 °F 62.4 °F 30.2 in ENE 5.5 mph 9.7 mph 72.1% 0 in
19:44 71.6 °F 62.6 °F 30.2 in ENE 4.3 mph 9.2 mph 73% 0 in
19:49 71.4 °F 62.2 °F 30.2 in NE 4.7 mph 8.5 mph 73% 0 in
19:54 71.2 °F 62.1 °F 30.2 in ENE 5.2 mph 8.5 mph 73% 0 in
19:59 71.1 °F 62.1 °F 30.2 in ENE 5 mph 8.1 mph 73% 0 in
20:04 71.1 °F 61.9 °F 30.2 in ENE 4.7 mph 6.9 mph 73% 0 in
20:09 70.9 °F 61.7 °F 30.2 in NE 4.4 mph 6.9 mph 73% 0 in
20:14 70.5 °F 61.9 °F 30.2 in NE 4 mph 5.9 mph 73.9% 0 in
20:19 70.5 °F 61.9 °F 30.2 in NE 3.9 mph 5.8 mph 74% 0 in
20:24 70.5 °F 61.9 °F 30.2 in NE 3.6 mph 5.8 mph 74% 0 in
20:29 70.3 °F 61.7 °F 30.2 in NE 3.6 mph 5.9 mph 74% 0 in
20:34 70.3 °F 61.7 °F 30.2 in NE 3.6 mph 5.8 mph 74% 0 in
20:39 70.3 °F 61.7 °F 30.2 in NE 3.4 mph 5.2 mph 74.1% 0 in
20:44 70.2 °F 61.9 °F 30.2 in NE 3.1 mph 4.7 mph 75% 0 in
20:49 70.2 °F 61.9 °F 30.2 in NE 3.1 mph 5.9 mph 75% 0 in
20:54 70 °F 61.7 °F 30.2 in NE 3.1 mph 4.6 mph 75.3% 0 in
20:59 69.6 °F 61.7 °F 30.2 in NNE 3 mph 5.2 mph 76% 0 in
21:04 69.4 °F 61.7 °F 30.2 in NNE 2.9 mph 6.2 mph 76.5% 0 in
21:09 69.1 °F 61.7 °F 30.2 in NE 3.5 mph 6.9 mph 77.4% 0 in
21:14 68.7 °F 61.7 °F 30.2 in NNE 4.3 mph 6.9 mph 78% 0 in
21:19 68.7 °F 61.9 °F 30.2 in NNE 4.2 mph 6.2 mph 78.9% 0 in
21:24 68.5 °F 61.9 °F 30.2 in NNE 4 mph 7.4 mph 79% 0 in
21:29 68.4 °F 61.9 °F 30.2 in NNE 4.1 mph 8.1 mph 79.6% 0 in
21:34 68.4 °F 61.9 °F 30.2 in NNE 4.3 mph 7.4 mph 80% 0 in
21:39 68.2 °F 62.1 °F 30.2 in NNE 4.7 mph 7.4 mph 80.8% 0 in
21:44 68.2 °F 62.1 °F 30.2 in NNE 5.2 mph 6.9 mph 81% 0 in
21:49 68.2 °F 62.1 °F 30.2 in NE 4.8 mph 5.2 mph 81% 0 in
21:54 68.2 °F 62.1 °F 30.2 in North 4.3 mph 5.8 mph 81% 0 in
21:59 68 °F 62.1 °F 30.2 in NNE 3.8 mph 4.7 mph 81% 0 in
22:04 67.8 °F 62.1 °F 30.2 in NNE 3.1 mph 3.5 mph 81.6% 0 in
22:09 67.8 °F 62.1 °F 30.2 in NNE 2.7 mph 3.5 mph 82% 0 in
22:14 67.8 °F 62.1 °F 30.2 in NNE 2 mph 2.9 mph 82% 0 in
22:19 67.6 °F 61.9 °F 30.2 in North 1.9 mph 2.9 mph 82% 0 in
22:24 67.6 °F 61.9 °F 30.2 in North 1.8 mph 3.5 mph 82% 0 in
22:29 67.5 °F 62.1 °F 30.2 in NNO 1.8 mph 3.5 mph 82.9% 0 in
22:34 67.5 °F 62.1 °F 30.2 in NNO 1.8 mph 3.5 mph 83% 0 in
22:39 67.3 °F 61.9 °F 30.2 in NNO 1.6 mph 2.9 mph 83% 0 in
22:44 67.3 °F 61.9 °F 30.2 in NNO 1.4 mph 2.4 mph 83% 0 in
22:49 67.3 °F 61.9 °F 30.2 in NNO 0.8 mph 2.4 mph 83.1% 0 in
22:54 67.3 °F 62.2 °F 30.3 in Calm   2.9 mph 84% 0 in
22:59 67.3 °F 62.2 °F 30.3 in NNO 0.6 mph 2.4 mph 84% 0 in
23:04 67.3 °F 62.2 °F 30.3 in NNO 1.4 mph 2.3 mph 84% 0 in
23:09 67.1 °F 62.2 °F 30.3 in NNO 0.8 mph 1.2 mph 84% 0 in
23:14 67.1 °F 62.1 °F 30.3 in Calm     84% 0 in
23:19 66.9 °F 61.9 °F 30.3 in Calm   2.9 mph 84% 0 in
23:24 66.9 °F 61.9 °F 30.3 in Calm   2.9 mph 84% 0 in
23:29 66.9 °F 61.9 °F 30.3 in NNO 0.7 mph 3.5 mph 84% 0 in
23:34 66.9 °F 61.9 °F 30.3 in NNO 1.8 mph 3.5 mph 84% 0 in
23:39 66.9 °F 61.9 °F 30.3 in NNO 1.7 mph 2.3 mph 84% 0 in
23:44 66.9 °F 61.9 °F 30.3 in NNO 1.4 mph 3.1 mph 84% 0 in
23:49 66.7 °F 61.9 °F 30.3 in NNO 1.6 mph 4.6 mph 84.3% 0 in
23:54 66.7 °F 62.1 °F 30.3 in NNO 1.8 mph 3.5 mph 85% 0 in
23:59 66.6 °F 61.9 °F 30.3 in NNO 1.8 mph 2.3 mph 85% 0 in
Murcia-Puente Tocinos, Espa?a
Compliments of Weather Underground - 3 mb

La estación de MeteoMurcia.com, publica sus datos en los siguientes proyectos:

Weather Underground PWS IMURCIAP2 Meteoclimatic www.awekas.at

W3Counter
Web Analytics